Flag for USA

Past Weather in Georgia Pacific Wildlife Management Area, Louisiana, USA — Yesterday and Last 2 Weeks

Currently: 45 °F. Passing clouds. (Weather station: Vicksburg Municipal, USA). See more current weather

Past Weather in Georgia Pacific Wildlife Management Area — Graph

°F

Georgia Pacific Wildlife Management Area Temperature Yesterday

Maximum temperature yesterday: 57 °F (at 11:55 am)
Minimum temperature yesterday: 28 °F (at 5:15 am)
Average temperature yesterday: 43 °F

High & Low Weather Summary for the Past Weeks

 TemperatureHumidityPressure
High79 °F (Jan 18, 12:55 pm)100% (Jan 14, 2:15 am)30.40 "Hg (Jan 14, 2:15 am)
Low27 °F (Jan 14, 7:15 am)26% (Jan 19, 1:55 pm)29.64 "Hg (Jan 24, 8:55 pm)
Average50 °F78%30.09 "Hg
* Reported Jan 13 12:15 am — Jan 28 12:35 am, Georgia Pacific Wildlife Management Area. Weather by CustomWeather, © 2023

Note: Actual official high and low records may vary slightly from our data, if they occured in-between our weather recording intervals... More about our weather records

Georgia Pacific Wildlife Management Area Weather History for the Previous 24 Hours

Scroll right to see more
 ConditionsComfort  
Time TempWeatherWind HumidityBarometerVisibility
12:35 am
Sat, Jan 28
45 °FPassing clouds.6 mph61%30.28 "Hg10 mi
12:15 am45 °FPassing clouds.8 mph61%30.28 "Hg10 mi
11:35 pm
Fri, Jan 27
46 °FClear.10 mph53%30.28 "Hg10 mi
11:15 pm46 °FClear.9 mph53%30.28 "Hg10 mi
10:55 pm45 °FClear.7 mph53%30.28 "Hg10 mi
10:35 pm39 °FClear.No wind75%30.28 "Hg10 mi
10:15 pm37 °FClear.No wind87%30.29 "Hg10 mi
9:55 pm37 °FClear.No wind87%30.29 "Hg10 mi
9:35 pm37 °FClear.No wind81%30.29 "Hg10 mi
9:15 pm39 °FClear.No wind75%30.29 "Hg10 mi
8:55 pm39 °FClear.No wind75%30.29 "Hg10 mi
8:15 pm39 °FClear.No wind75%30.29 "Hg10 mi
7:35 pm41 °FClear.No wind76%30.29 "Hg10 mi
7:15 pm43 °FClear.No wind66%30.29 "Hg10 mi
6:55 pm45 °FClear.No wind61%30.29 "Hg10 mi
5:35 pm54 °FClear.No wind35%30.27 "Hg10 mi
5:15 pm54 °FSunny.3 mph35%30.27 "Hg10 mi
4:55 pm55 °FSunny.7 mph33%30.27 "Hg10 mi
4:15 pm57 °FSunny.9 mph31%30.27 "Hg10 mi
3:55 pm57 °FSunny.9 mph31%30.27 "Hg10 mi
3:35 pm57 °FSunny.9 mph31%30.27 "Hg10 mi
3:15 pm57 °FSunny.9 mph31%30.27 "Hg10 mi
2:55 pm57 °FSunny.8 mph31%30.28 "Hg10 mi
2:15 pm57 °FSunny.8 mph33%30.29 "Hg10 mi
1:55 pm55 °FSunny.8 mph36%30.28 "Hg10 mi
1:15 pm57 °FSunny.9 mph33%30.29 "Hg10 mi
12:55 pm57 °FSunny.8 mph33%30.31 "Hg10 mi
12:15 pm57 °FSunny.9 mph33%30.33 "Hg10 mi
11:55 am57 °FSunny.12 mph36%30.35 "Hg10 mi
11:35 am55 °FSunny.12 mph41%30.35 "Hg10 mi
11:15 am55 °FSunny.8 mph41%30.36 "Hg10 mi
10:55 am54 °FSunny.9 mph44%30.38 "Hg10 mi
10:15 am52 °FSunny.7 mph47%30.39 "Hg10 mi
9:55 am50 °FSunny.8 mph50%30.39 "Hg10 mi
9:35 am48 °FSunny.9 mph58%30.40 "Hg10 mi
9:15 am46 °FSunny.6 mph57%30.39 "Hg10 mi
8:55 am46 °FSunny.5 mph62%30.38 "Hg10 mi
7:35 am30 °FSunny.No wind100%30.35 "Hg10 mi
7:15 am30 °FSunny.No wind100%30.35 "Hg10 mi
6:55 am28 °FClear.No wind100%30.35 "Hg10 mi
6:15 am28 °FPassing clouds.No wind100%30.34 "Hg10 mi
5:55 am28 °FClear.No wind100%30.33 "Hg10 mi
5:15 am28 °FPassing clouds.No wind100%30.33 "Hg10 mi
4:55 am30 °FPassing clouds.No wind100%30.33 "Hg10 mi
4:35 am30 °FPassing clouds.No wind100%30.33 "Hg10 mi
4:15 am30 °FPassing clouds.No wind100%30.33 "Hg10 mi
3:55 am30 °FPassing clouds.No wind100%30.33 "Hg10 mi
3:35 am30 °FClear.No wind100%30.33 "Hg10 mi
3:15 am30 °FClear.No wind100%30.34 "Hg10 mi
2:55 am30 °FClear.No wind100%30.34 "Hg10 mi
2:35 am30 °FPassing clouds.No wind100%30.34 "Hg10 mi
2:15 am30 °FClear.No wind100%30.34 "Hg10 mi
1:55 am30 °FClear.No wind100%30.35 "Hg10 mi
1:15 am30 °FClear.No wind100%30.34 "Hg10 mi
Weather by CustomWeather, © 2023

See weather overview